Time;durP1;ratioP1;P1;durP2;ratioP2;P2;SDS_P1;SDS_P2;PMS_P1;PMS_P2;Temp;Humidity;BMP_temperature;BMP_pressure;BME280_temperature;BME280_humidity;BME280_pressure;Samples;Min_cycle;Max_cycle;Signal;HPM_P1;HPM_P2
2023/02/05 00:01:43;;;;;;;23.00;9.68;;;;;;;;;;4965289;29;20394;-78
2023/02/05 00:04:09;;;;;;;21.02;10.65;;;;;;;;;;4950175;29;20024;-77
2023/02/05 00:06:41;;;;;;;19.67;9.65;;;;;;;;;;4933168;29;20028;-79
2023/02/05 00:09:14;;;;;;;22.45;8.73;;;;;;;;;;4950697;29;20075;-78
2023/02/05 00:11:44;;;;;;;20.77;8.40;;;;;;;;;;4950906;29;20034;-77
2023/02/05 00:14:15;;;;;;;17.65;7.80;;;;;;;;;;4949412;29;20028;-77
2023/02/05 00:16:49;;;;;;;15.23;9.90;;;;;;;;;;4950316;29;20046;-78
2023/02/05 00:19:17;;;;;;;14.50;7.88;;;;;;;;;;4934406;29;20027;-78
2023/02/05 00:21:51;;;;;;;19.20;10.25;;;;;;;;;;4932883;29;20034;-79
2023/02/05 00:24:20;;;;;;;22.02;10.48;;;;;;;;;;4932958;29;20015;-77
2023/02/05 00:26:51;;;;;;;26.33;12.30;;;;;;;;;;4950245;29;20024;-77
2023/02/05 00:29:24;;;;;;;17.95;10.60;;;;;;;;;;4932961;29;20035;-77
2023/02/05 00:31:57;;;;;;;17.70;9.32;;;;;;;;;;4932529;29;20028;-77
2023/02/05 00:34:28;;;;;;;15.02;8.18;;;;;;;;;;4932825;29;20023;-78
2023/02/05 00:36:57;;;;;;;16.33;9.65;;;;;;;;;;4948445;29;20031;-77
2023/02/05 00:39:28;;;;;;;19.52;10.00;;;;;;;;;;4948499;29;20032;-77
2023/02/05 00:41:59;;;;;;;22.75;10.45;;;;;;;;;;4948846;29;20501;-77
2023/02/05 00:44:30;;;;;;;25.63;11.00;;;;;;;;;;4949924;29;20031;-78
2023/02/05 00:47:02;;;;;;;21.27;10.07;;;;;;;;;;4949859;29;20024;-78
2023/02/05 00:49:35;;;;;;;20.25;10.00;;;;;;;;;;4950242;29;20023;-78
2023/02/05 00:52:06;;;;;;;28.70;12.18;;;;;;;;;;4932430;29;20035;-78
2023/02/05 00:54:35;;;;;;;21.88;11.05;;;;;;;;;;4949376;29;20028;-78
2023/02/05 01:00:26;;;;;;;24.92;10.75;;;;;;;;;;4949698;29;20390;-79
2023/02/05 01:02:57;;;;;;;19.90;9.95;;;;;;;;;;4950036;29;20094;-78
2023/02/05 01:05:26;;;;;;;19.40;10.38;;;;;;;;;;4948948;29;20027;-77
2023/02/05 01:08:01;;;;;;;26.20;9.15;;;;;;;;;;4949172;29;20408;-77
2023/02/05 01:10:28;;;;;;;14.27;8.13;;;;;;;;;;4933140;29;20107;-77
2023/02/05 01:12:54;;;;;;;19.40;8.80;;;;;;;;;;4932327;29;20060;-77
2023/02/05 01:15:20;;;;;;;12.23;7.68;;;;;;;;;;4949062;29;20058;-78
2023/02/05 01:17:49;;;;;;;17.75;8.02;;;;;;;;;;4949357;29;20034;-78
2023/02/05 01:20:19;;;;;;;19.65;8.65;;;;;;;;;;4949467;29;20079;-78
2023/02/05 01:22:51;;;;;;;17.98;9.13;;;;;;;;;;4949224;29;20394;-78
2023/02/05 01:25:24;;;;;;;18.60;9.15;;;;;;;;;;4949548;29;20023;-78
2023/02/05 01:27:53;;;;;;;14.65;8.80;;;;;;;;;;4949285;29;20087;-77
2023/02/05 01:30:28;;;;;;;13.50;8.43;;;;;;;;;;4949129;29;20024;-77
2023/02/05 01:32:57;;;;;;;21.88;8.90;;;;;;;;;;4963646;29;20027;-78
2023/02/05 01:38:27;;;;;;;19.73;8.65;;;;;;;;;;4948820;29;20023;-78
2023/02/05 01:41:01;;;;;;;13.60;7.55;;;;;;;;;;4948865;29;20027;-78
2023/02/05 01:43:36;;;;;;;16.83;7.93;;;;;;;;;;4962376;29;20028;-79
2023/02/05 01:46:20;;;;;;;17.92;8.07;;;;;;;;;;4949705;29;20030;-77
2023/02/05 01:48:53;;;;;;;16.20;7.00;;;;;;;;;;4949117;29;20032;-78
2023/02/05 01:51:22;;;;;;;18.73;9.00;;;;;;;;;;4949024;29;20494;-78
2023/02/05 01:53:52;;;;;;;20.13;9.18;;;;;;;;;;4949475;29;20032;-77
2023/02/05 01:56:29;;;;;;;14.80;7.68;;;;;;;;;;4940002;29;20048;-77
2023/02/05 01:58:55;;;;;;;19.30;8.82;;;;;;;;;;4929853;29;20028;-76
2023/02/05 02:01:27;;;;;;;16.15;8.85;;;;;;;;;;4936506;29;20023;-80
2023/02/05 02:04:04;;;;;;;23.33;8.45;;;;;;;;;;4931547;29;20027;-77
2023/02/05 02:09:36;;;;;;;22.55;9.50;;;;;;;;;;4948791;29;20047;-78
2023/02/05 02:12:02;;;;;;;19.17;9.25;;;;;;;;;;4948857;29;20052;-77
2023/02/05 02:14:30;;;;;;;14.23;9.10;;;;;;;;;;4930847;29;20032;-75
2023/02/05 02:16:56;;;;;;;20.40;9.82;;;;;;;;;;4931115;29;20477;-77
2023/02/05 02:19:31;;;;;;;20.52;8.95;;;;;;;;;;4948504;29;20031;-77
2023/02/05 02:22:09;;;;;;;14.73;7.80;;;;;;;;;;4948249;29;20034;-79
2023/02/05 02:24:43;;;;;;;16.42;8.00;;;;;;;;;;4948492;29;20028;-78
2023/02/05 02:27:15;;;;;;;19.27;8.95;;;;;;;;;;4930711;29;20032;-78
2023/02/05 02:29:44;;;;;;;19.15;8.75;;;;;;;;;;4922498;29;20029;-80
2023/02/05 02:32:30;;;;;;;14.73;9.77;;;;;;;;;;4948065;29;20475;-78
2023/02/05 02:35:05;;;;;;;18.40;7.90;;;;;;;;;;4944097;29;20394;-78
2023/02/05 02:37:37;;;;;;;15.63;9.07;;;;;;;;;;4948561;29;20028;-79
2023/02/05 02:40:10;;;;;;;14.35;9.70;;;;;;;;;;4951023;29;20034;-77
2023/02/05 02:42:54;;;;;;;17.45;9.32;;;;;;;;;;4951160;29;20066;-77
2023/02/05 02:45:22;;;;;;;16.05;8.40;;;;;;;;;;4951116;29;20028;-77
2023/02/05 02:47:53;;;;;;;15.48;8.27;;;;;;;;;;4951122;29;20054;-79
2023/02/05 02:50:38;;;;;;;18.05;9.55;;;;;;;;;;4951203;29;20027;-78
2023/02/05 02:53:12;;;;;;;23.57;9.40;;;;;;;;;;4951510;29;20024;-77
2023/02/05 02:55:41;;;;;;;16.43;8.77;;;;;;;;;;4950980;29;20030;-78
2023/02/05 02:58:14;;;;;;;16.15;9.50;;;;;;;;;;4951419;29;20471;-77
2023/02/05 03:00:42;;;;;;;15.82;9.45;;;;;;;;;;4951086;29;20027;-78
2023/02/05 03:03:13;;;;;;;18.92;8.65;;;;;;;;;;4936842;29;20075;-77
2023/02/05 03:05:41;;;;;;;17.15;9.40;;;;;;;;;;4937877;29;20032;-77
2023/02/05 03:08:12;;;;;;;18.98;8.98;;;;;;;;;;4951225;29;20083;-78
2023/02/05 03:10:44;;;;;;;17.90;9.15;;;;;;;;;;4950982;29;20075;-78
2023/02/05 03:13:10;;;;;;;16.60;8.25;;;;;;;;;;4950992;29;20047;-77
2023/02/05 03:15:38;;;;;;;18.95;9.90;;;;;;;;;;4933270;29;20125;-80
2023/02/05 03:18:06;;;;;;;22.92;9.90;;;;;;;;;;4947664;29;20079;-77
2023/02/05 03:20:44;;;;;;;19.58;8.20;;;;;;;;;;4949929;29;20079;-78
2023/02/05 03:23:11;;;;;;;17.38;8.93;;;;;;;;;;4938496;29;20080;-77
2023/02/05 03:25:39;;;;;;;14.88;6.97;;;;;;;;;;4943341;29;20490;-78
2023/02/05 03:28:06;;;;;;;12.38;7.57;;;;;;;;;;4926120;29;20074;-78
2023/02/05 03:30:39;;;;;;;16.80;8.10;;;;;;;;;;4949858;29;20027;-78
2023/02/05 03:33:24;;;;;;;15.07;8.48;;;;;;;;;;4950352;29;20024;-77
2023/02/05 03:42:23;;;;;;;16.10;7.80;;;;;;;;;;4946880;29;20079;-77
2023/02/05 03:45:03;;;;;;;14.77;9.18;;;;;;;;;;4931098;29;20032;-77
2023/02/05 03:47:45;;;;;;;17.67;8.80;;;;;;;;;;4931189;29;20027;-78
2023/02/05 03:50:20;;;;;;;16.02;7.47;;;;;;;;;;4943027;29;20031;-78
2023/02/05 03:52:59;;;;;;;16.77;7.75;;;;;;;;;;4949567;29;20031;-79
2023/02/05 03:55:30;;;;;;;15.18;8.25;;;;;;;;;;4953432;29;20037;-76
2023/02/05 03:58:00;;;;;;;12.02;7.28;;;;;;;;;;4957802;29;20028;-77
2023/02/05 04:00:27;;;;;;;11.32;7.45;;;;;;;;;;4948774;29;20411;-77
2023/02/05 04:02:53;;;;;;;12.93;7.50;;;;;;;;;;4943306;29;20043;-77
2023/02/05 04:05:21;;;;;;;13.30;7.93;;;;;;;;;;4944908;29;20032;-78
2023/02/05 04:07:48;;;;;;;17.75;7.85;;;;;;;;;;4949774;29;20024;-78
2023/02/05 04:10:17;;;;;;;13.93;8.35;;;;;;;;;;4949181;29;20047;-78
2023/02/05 04:12:51;;;;;;;17.25;8.18;;;;;;;;;;4932299;29;20086;-78
2023/02/05 04:15:25;;;;;;;14.55;7.85;;;;;;;;;;4943522;29;20035;-77
2023/02/05 04:17:56;;;;;;;16.17;8.38;;;;;;;;;;4946338;29;20112;-77
2023/02/05 04:20:22;;;;;;;15.48;7.65;;;;;;;;;;4935627;29;20075;-77
2023/02/05 04:26:01;;;;;;;17.27;7.30;;;;;;;;;;4949968;29;20035;-77
2023/02/05 04:28:27;;;;;;;14.93;7.88;;;;;;;;;;4936817;29;20024;-79
2023/02/05 04:31:06;;;;;;;19.00;7.90;;;;;;;;;;4951399;29;20039;-79
2023/02/05 04:33:32;;;;;;;9.98;6.70;;;;;;;;;;4952968;29;20016;-79
2023/02/05 04:35:59;;;;;;;13.55;7.20;;;;;;;;;;4943962;29;20071;-79
2023/02/05 04:38:30;;;;;;;15.80;7.22;;;;;;;;;;4951399;29;20026;-81
2023/02/05 04:40:56;;;;;;;18.00;8.50;;;;;;;;;;4956956;29;20055;-76
2023/02/05 04:43:23;;;;;;;12.98;7.20;;;;;;;;;;4938474;29;20032;-75
2023/02/05 04:45:49;;;;;;;13.35;7.10;;;;;;;;;;4933862;29;20027;-77
2023/02/05 04:48:18;;;;;;;14.05;7.45;;;;;;;;;;4947137;29;20132;-79
2023/02/05 04:50:47;;;;;;;16.40;7.72;;;;;;;;;;4929139;29;20028;-77
2023/02/05 04:53:13;;;;;;;16.92;7.72;;;;;;;;;;4950603;29;20086;-78
2023/02/05 04:55:40;;;;;;;13.13;7.25;;;;;;;;;;4957162;29;20040;-78
2023/02/05 04:58:06;;;;;;;12.93;6.85;;;;;;;;;;4940240;29;20016;-78
2023/02/05 05:00:32;;;;;;;12.98;6.57;;;;;;;;;;4928315;29;20060;-79
2023/02/05 05:02:58;;;;;;;15.20;6.95;;;;;;;;;;4944041;29;20118;-77
2023/02/05 05:05:33;;;;;;;14.60;5.75;;;;;;;;;;4937797;29;20028;-78
2023/02/05 05:07:59;;;;;;;17.63;7.35;;;;;;;;;;4934176;29;20032;-77
2023/02/05 05:10:26;;;;;;;13.68;6.93;;;;;;;;;;4943056;29;20043;-78
2023/02/05 05:12:52;;;;;;;15.73;8.10;;;;;;;;;;4947870;29;20031;-77
2023/02/05 05:15:18;;;;;;;15.95;6.53;;;;;;;;;;4945170;29;20036;-79
2023/02/05 05:17:44;;;;;;;14.63;7.68;;;;;;;;;;4934748;29;20031;-78
2023/02/05 05:20:11;;;;;;;12.05;6.25;;;;;;;;;;4948803;29;20034;-77
2023/02/05 05:22:38;;;;;;;12.65;6.15;;;;;;;;;;4948067;29;20031;-77
2023/02/05 05:25:04;;;;;;;13.27;7.30;;;;;;;;;;4912383;29;20479;-77
2023/02/05 05:27:30;;;;;;;9.50;6.35;;;;;;;;;;4942931;29;20140;-79
2023/02/05 05:29:57;;;;;;;13.80;6.38;;;;;;;;;;4939077;29;20028;-79
2023/02/05 05:32:25;;;;;;;16.88;7.00;;;;;;;;;;4937572;29;20023;-77
2023/02/05 05:34:52;;;;;;;12.90;6.88;;;;;;;;;;4945301;29;20025;-76
2023/02/05 05:37:18;;;;;;;13.77;6.70;;;;;;;;;;4943879;29;20024;-78
2023/02/05 05:45:35;;;;;;;12.60;7.05;;;;;;;;;;4924023;29;20111;-76
2023/02/05 05:48:20;;;;;;;16.02;6.88;;;;;;;;;;4902245;29;20168;-76
2023/02/05 05:50:46;;;;;;;12.68;7.18;;;;;;;;;;4934707;29;20040;-79
2023/02/05 05:53:12;;;;;;;16.88;7.72;;;;;;;;;;4947557;29;20035;-77
2023/02/05 05:55:41;;;;;;;13.18;7.25;;;;;;;;;;4942972;29;20383;-76
2023/02/05 05:58:08;;;;;;;12.25;8.27;;;;;;;;;;4940052;29;20028;-76
2023/02/05 06:00:35;;;;;;;13.70;7.45;;;;;;;;;;4931432;29;20030;-78
2023/02/05 06:03:01;;;;;;;17.42;7.53;;;;;;;;;;4947875;29;20035;-76
2023/02/05 06:05:30;;;;;;;13.55;7.78;;;;;;;;;;4931112;29;20032;-77
2023/02/05 06:08:01;;;;;;;16.80;7.65;;;;;;;;;;4948189;29;20376;-77
2023/02/05 06:10:27;;;;;;;12.68;7.28;;;;;;;;;;4944636;29;20060;-78
2023/02/05 06:12:56;;;;;;;15.68;7.88;;;;;;;;;;4932575;29;20399;-79
2023/02/05 06:15:22;;;;;;;15.05;7.28;;;;;;;;;;4951428;29;20047;-76
2023/02/05 06:17:48;;;;;;;11.13;7.07;;;;;;;;;;4934285;29;20031;-77
2023/02/05 06:20:15;;;;;;;14.77;6.43;;;;;;;;;;4931166;29;20092;-79
2023/02/05 06:25:44;;;;;;;13.95;8.13;;;;;;;;;;4942403;29;20058;-76
2023/02/05 06:28:11;;;;;;;13.02;7.32;;;;;;;;;;4933110;29;20379;-77
2023/02/05 06:30:37;;;;;;;14.88;7.55;;;;;;;;;;4951943;29;20027;-77
2023/02/05 06:33:04;;;;;;;11.18;7.35;;;;;;;;;;4952018;29;20039;-78
2023/02/05 06:35:30;;;;;;;15.23;7.13;;;;;;;;;;4951644;29;20052;-76
2023/02/05 06:37:59;;;;;;;12.07;6.93;;;;;;;;;;4951687;29;20028;-78
2023/02/05 06:40:26;;;;;;;17.25;9.00;;;;;;;;;;4951302;29;20020;-79
2023/02/05 06:42:53;;;;;;;13.98;6.20;;;;;;;;;;4951855;29;20039;-78
2023/02/05 06:45:22;;;;;;;16.60;9.25;;;;;;;;;;4952013;29;20087;-78
2023/02/05 06:47:54;;;;;;;14.45;7.60;;;;;;;;;;4952005;29;20030;-77
2023/02/05 06:50:21;;;;;;;15.23;7.80;;;;;;;;;;4951853;29;20565;-77
2023/02/05 06:52:47;;;;;;;12.93;7.82;;;;;;;;;;4934784;29;20035;-78
2023/02/05 06:55:13;;;;;;;12.43;6.80;;;;;;;;;;4934515;29;20035;-77
2023/02/05 06:58:00;;;;;;;17.95;7.70;;;;;;;;;;4934565;29;20024;-78
2023/02/05 07:00:26;;;;;;;19.15;8.05;;;;;;;;;;4934966;29;20042;-76
2023/02/05 07:02:53;;;;;;;13.18;6.38;;;;;;;;;;4933953;29;20044;-77
2023/02/05 07:05:23;;;;;;;14.80;7.35;;;;;;;;;;4952186;29;20024;-77
2023/02/05 07:07:49;;;;;;;12.50;6.65;;;;;;;;;;4934484;29;20035;-78
2023/02/05 07:10:20;;;;;;;13.18;7.15;;;;;;;;;;4951885;29;20051;-78
2023/02/05 07:12:51;;;;;;;11.40;8.60;;;;;;;;;;4934613;29;20032;-76
2023/02/05 07:15:17;;;;;;;12.57;7.32;;;;;;;;;;4951749;29;20035;-78
2023/02/05 07:17:45;;;;;;;13.73;7.32;;;;;;;;;;4950969;29;20475;-77
2023/02/05 07:20:15;;;;;;;15.52;7.88;;;;;;;;;;4951277;29;20031;-76
2023/02/05 07:22:41;;;;;;;14.68;7.40;;;;;;;;;;4933951;29;20035;-78
2023/02/05 07:25:13;;;;;;;14.35;7.00;;;;;;;;;;4944210;29;20080;-77
2023/02/05 07:27:42;;;;;;;13.32;7.35;;;;;;;;;;4948510;29;20044;-77
2023/02/05 07:30:09;;;;;;;12.38;7.97;;;;;;;;;;4933886;29;20024;-78
2023/02/05 07:32:38;;;;;;;18.20;8.50;;;;;;;;;;4951020;29;20028;-76
2023/02/05 07:35:04;;;;;;;12.73;8.10;;;;;;;;;;4965338;29;20039;-77
2023/02/05 07:37:36;;;;;;;19.80;8.07;;;;;;;;;;4933636;29;20032;-78
2023/02/05 07:40:02;;;;;;;12.50;7.65;;;;;;;;;;4963286;29;20020;-76
2023/02/05 07:42:28;;;;;;;16.70;7.22;;;;;;;;;;4970056;29;20027;-77
2023/02/05 07:44:54;;;;;;;16.27;8.02;;;;;;;;;;4957884;29;20526;-78
2023/02/05 07:47:20;;;;;;;17.63;8.20;;;;;;;;;;4950639;29;20024;-76
2023/02/05 07:49:46;;;;;;;16.40;8.45;;;;;;;;;;4931783;29;20431;-75
2023/02/05 07:52:13;;;;;;;19.85;9.88;;;;;;;;;;4948845;29;20023;-77
2023/02/05 07:54:39;;;;;;;16.83;9.15;;;;;;;;;;4932979;29;20491;-77
2023/02/05 07:57:05;;;;;;;15.20;7.05;;;;;;;;;;4951118;29;20027;-77
2023/02/05 08:03:01;;;;;;;11.18;7.00;;;;;;;;;;4932553;29;20067;-76
2023/02/05 08:05:27;;;;;;;13.43;7.30;;;;;;;;;;4931192;29;20099;-77
2023/02/05 08:08:01;;;;;;;13.05;7.03;;;;;;;;;;4921609;29;20038;-77
2023/02/05 08:10:30;;;;;;;12.10;6.50;;;;;;;;;;4917836;29;20043;-77
2023/02/05 08:12:56;;;;;;;16.88;7.18;;;;;;;;;;4928550;29;20035;-76
2023/02/05 08:15:22;;;;;;;11.25;6.68;;;;;;;;;;4933044;29;20044;-77
2023/02/05 08:17:48;;;;;;;16.30;7.32;;;;;;;;;;4950066;29;20074;-78
2023/02/05 08:20:15;;;;;;;13.88;6.85;;;;;;;;;;4933334;29;20027;-78
2023/02/05 08:22:42;;;;;;;10.50;7.07;;;;;;;;;;4949940;29;20026;-77
2023/02/05 08:25:10;;;;;;;12.70;7.13;;;;;;;;;;4934203;29;20020;-77
2023/02/05 08:27:38;;;;;;;17.30;8.35;;;;;;;;;;4931005;29;20027;-77
2023/02/05 08:30:05;;;;;;;17.63;7.90;;;;;;;;;;4914967;29;20110;-77
2023/02/05 08:32:31;;;;;;;14.43;8.63;;;;;;;;;;4949788;29;20024;-76
2023/02/05 08:35:00;;;;;;;18.98;9.27;;;;;;;;;;4943497;29;20023;-77
2023/02/05 08:37:26;;;;;;;12.20;7.35;;;;;;;;;;4932390;29;20022;-77
2023/02/05 08:39:53;;;;;;;15.70;6.72;;;;;;;;;;4932514;29;20373;-77
2023/02/05 08:42:23;;;;;;;12.48;6.65;;;;;;;;;;4950222;29;20020;-78
2023/02/05 08:44:49;;;;;;;15.50;7.25;;;;;;;;;;4934107;29;20020;-78
2023/02/05 08:47:21;;;;;;;15.23;7.03;;;;;;;;;;4932161;29;20105;-77
2023/02/05 08:49:53;;;;;;;14.00;6.50;;;;;;;;;;4927965;29;20498;-77
2023/02/05 08:55:22;;;;;;;9.85;5.38;;;;;;;;;;4943309;29;20038;-78
2023/02/05 08:57:49;;;;;;;9.85;5.05;;;;;;;;;;4946925;29;20028;-76
2023/02/05 09:00:15;;;;;;;10.95;6.18;;;;;;;;;;4950588;29;20103;-77
2023/02/05 09:02:42;;;;;;;10.43;5.40;;;;;;;;;;4951581;29;20024;-78
2023/02/05 09:05:08;;;;;;;11.52;5.47;;;;;;;;;;4949393;29;20028;-77
2023/02/05 09:07:40;;;;;;;10.90;5.57;;;;;;;;;;4950886;29;20028;-77
2023/02/05 09:10:09;;;;;;;11.68;6.15;;;;;;;;;;4948750;29;20040;-78
2023/02/05 09:12:38;;;;;;;11.48;6.82;;;;;;;;;;4937623;29;20052;-77
2023/02/05 09:15:08;;;;;;;12.65;6.00;;;;;;;;;;4935580;29;20104;-78
2023/02/05 09:17:34;;;;;;;9.23;5.28;;;;;;;;;;4949396;29;20023;-80
2023/02/05 09:20:00;;;;;;;11.20;5.65;;;;;;;;;;4948512;29;20114;-77
2023/02/05 09:22:29;;;;;;;13.07;5.28;;;;;;;;;;4945567;29;20095;-77
2023/02/05 09:24:55;;;;;;;10.73;5.07;;;;;;;;;;4953949;29;20067;-78
2023/02/05 09:27:21;;;;;;;8.25;5.60;;;;;;;;;;4919259;29;20032;-77
2023/02/05 09:29:47;;;;;;;11.40;5.28;;;;;;;;;;4956116;29;20032;-76
2023/02/05 09:32:14;;;;;;;13.70;6.75;;;;;;;;;;4931269;29;20047;-77
2023/02/05 09:34:40;;;;;;;10.77;6.35;;;;;;;;;;4945559;29;20038;-78
2023/02/05 09:37:06;;;;;;;11.52;5.20;;;;;;;;;;4944276;29;20036;-78
2023/02/05 09:39:32;;;;;;;14.05;5.85;;;;;;;;;;4943438;29;20030;-77
2023/02/05 09:42:10;;;;;;;15.25;6.53;;;;;;;;;;4945564;29;20066;-78
2023/02/05 09:44:46;;;;;;;19.30;9.57;;;;;;;;;;4937823;29;20035;-79
2023/02/05 09:47:24;;;;;;;13.45;8.15;;;;;;;;;;4926558;29;20028;-77
2023/02/05 09:50:14;;;;;;;9.65;5.50;;;;;;;;;;4952697;29;20031;-77
2023/02/05 09:52:43;;;;;;;11.82;7.75;;;;;;;;;;4937764;29;20032;-78
2023/02/05 09:55:25;;;;;;;9.73;5.63;;;;;;;;;;4949757;29;20017;-77
2023/02/05 09:57:53;;;;;;;9.70;6.75;;;;;;;;;;4941420;29;20031;-80
2023/02/05 10:00:26;;;;;;;13.57;6.43;;;;;;;;;;4951391;29;20040;-77
2023/02/05 10:03:02;;;;;;;11.80;6.57;;;;;;;;;;4952193;29;20016;-77
2023/02/05 10:05:32;;;;;;;12.65;7.07;;;;;;;;;;4942642;29;20036;-77
2023/02/05 10:08:05;;;;;;;11.50;6.28;;;;;;;;;;4944894;29;20394;-77
2023/02/05 10:10:49;;;;;;;12.77;5.78;;;;;;;;;;4951685;29;20051;-77
2023/02/05 10:13:23;;;;;;;14.68;5.35;;;;;;;;;;4952281;29;20083;-77
2023/02/05 10:16:09;;;;;;;12.68;5.43;;;;;;;;;;4952512;29;20031;-77
2023/02/05 10:18:44;;;;;;;13.73;5.50;;;;;;;;;;4911157;29;20070;-78
2023/02/05 10:21:29;;;;;;;16.15;6.55;;;;;;;;;;4946681;29;20030;-77
2023/02/05 10:24:14;;;;;;;7.90;5.25;;;;;;;;;;4932671;29;20052;-77
2023/02/05 10:26:49;;;;;;;13.38;6.00;;;;;;;;;;4939044;29;20024;-76
2023/02/05 10:29:34;;;;;;;10.20;5.53;;;;;;;;;;4933257;29;20051;-77
2023/02/05 10:32:08;;;;;;;12.15;6.22;;;;;;;;;;4934247;29;20053;-77
2023/02/05 10:34:55;;;;;;;10.10;6.38;;;;;;;;;;4934480;29;20103;-77
2023/02/05 10:37:27;;;;;;;9.77;5.32;;;;;;;;;;4951678;29;20066;-76
2023/02/05 10:39:56;;;;;;;10.27;5.85;;;;;;;;;;4951407;29;20043;-78
2023/02/05 10:42:28;;;;;;;10.27;5.32;;;;;;;;;;4950626;29;20020;-76
2023/02/05 10:45:14;;;;;;;11.93;5.28;;;;;;;;;;4950945;29;20038;-77
2023/02/05 10:47:59;;;;;;;11.00;6.60;;;;;;;;;;4951484;29;20079;-77
2023/02/05 10:50:45;;;;;;;10.68;5.57;;;;;;;;;;4941129;29;20431;-76
2023/02/05 10:53:16;;;;;;;6.63;4.90;;;;;;;;;;4950791;29;20102;-78
2023/02/05 10:55:42;;;;;;;10.65;5.82;;;;;;;;;;4946895;29;20067;-77
2023/02/05 10:58:24;;;;;;;15.50;5.15;;;;;;;;;;4950507;29;20027;-76
2023/02/05 11:00:50;;;;;;;16.13;6.32;;;;;;;;;;4934078;29;20028;-76
2023/02/05 11:03:17;;;;;;;13.48;5.78;;;;;;;;;;4934179;29;20047;-76
2023/02/05 11:05:45;;;;;;;11.93;5.68;;;;;;;;;;4951224;29;20040;-77
2023/02/05 11:08:30;;;;;;;17.75;7.05;;;;;;;;;;4933946;29;20028;-78
2023/02/05 11:10:56;;;;;;;12.32;5.78;;;;;;;;;;4951082;29;20099;-76
2023/02/05 11:13:24;;;;;;;11.98;5.70;;;;;;;;;;4934005;29;20063;-77
2023/02/05 11:16:09;;;;;;;16.30;7.03;;;;;;;;;;4933526;29;20042;-77
2023/02/05 11:18:39;;;;;;;13.20;6.50;;;;;;;;;;4947996;29;20043;-77
2023/02/05 11:21:07;;;;;;;17.95;8.65;;;;;;;;;;4932814;29;20028;-78
2023/02/05 11:23:38;;;;;;;13.07;7.30;;;;;;;;;;4949806;29;20030;-77
2023/02/05 11:26:17;;;;;;;14.63;10.98;;;;;;;;;;4949875;29;20019;-79
2023/02/05 11:28:45;;;;;;;15.57;7.38;;;;;;;;;;4941900;29;20020;-78
2023/02/05 11:31:30;;;;;;;14.07;5.85;;;;;;;;;;4947246;29;20036;-76
2023/02/05 11:34:11;;;;;;;13.10;7.85;;;;;;;;;;4914412;29;20035;-77
2023/02/05 11:36:38;;;;;;;11.65;5.45;;;;;;;;;;4945186;29;20036;-78
2023/02/05 11:39:08;;;;;;;11.82;6.15;;;;;;;;;;4951671;29;20024;-78
2023/02/05 11:41:57;;;;;;;10.27;4.53;;;;;;;;;;4929783;29;20039;-78
2023/02/05 11:44:28;;;;;;;17.58;7.93;;;;;;;;;;4951613;29;20095;-78
2023/02/05 11:46:57;;;;;;;11.52;6.00;;;;;;;;;;4933806;29;20024;-77
2023/02/05 11:49:30;;;;;;;13.13;5.80;;;;;;;;;;4929313;29;20029;-77
2023/02/05 11:52:00;;;;;;;17.77;7.28;;;;;;;;;;4931712;29;20040;-78
2023/02/05 11:54:30;;;;;;;10.95;5.63;;;;;;;;;;4930320;29;20032;-78
2023/02/05 11:57:15;;;;;;;11.93;6.05;;;;;;;;;;4928206;29;20023;-78
2023/02/05 11:59:43;;;;;;;13.43;6.27;;;;;;;;;;4936043;29;20122;-78
2023/02/05 12:02:28;;;;;;;11.90;5.63;;;;;;;;;;4951436;29;20035;-77
2023/02/05 12:05:07;;;;;;;15.77;8.55;;;;;;;;;;4921564;29;20039;-77
2023/02/05 12:07:42;;;;;;;16.65;5.72;;;;;;;;;;4938171;29;20479;-78
2023/02/05 12:10:14;;;;;;;11.38;6.80;;;;;;;;;;4932687;29;20095;-81
2023/02/05 12:12:49;;;;;;;13.18;7.22;;;;;;;;;;4950268;29;20043;-79
2023/02/05 12:15:25;;;;;;;13.80;5.80;;;;;;;;;;4951744;29;20027;-78
2023/02/05 12:18:03;;;;;;;12.30;4.60;;;;;;;;;;4950170;29;20024;-78
2023/02/05 12:20:32;;;;;;;9.13;4.55;;;;;;;;;;4950126;29;20036;-78
2023/02/05 12:23:14;;;;;;;11.10;4.32;;;;;;;;;;4939616;29;20028;-79
2023/02/05 12:25:47;;;;;;;12.95;5.65;;;;;;;;;;4931156;29;20038;-79
2023/02/05 12:28:20;;;;;;;18.35;11.20;;;;;;;;;;4927621;29;20034;-77
2023/02/05 12:31:01;;;;;;;20.25;11.75;;;;;;;;;;4951297;29;20023;-77
2023/02/05 12:33:33;;;;;;;12.40;5.28;;;;;;;;;;4948790;29;20020;-78
2023/02/05 12:39:22;;;;;;;12.07;4.57;;;;;;;;;;4948927;29;20123;-77
2023/02/05 12:42:10;;;;;;;10.15;4.20;;;;;;;;;;4947484;29;20032;-78
2023/02/05 12:44:37;;;;;;;12.55;4.00;;;;;;;;;;4944014;29;20020;-77
2023/02/05 12:47:19;;;;;;;11.48;3.75;;;;;;;;;;4927269;29;20091;-78
2023/02/05 12:49:53;;;;;;;11.43;4.10;;;;;;;;;;4935558;29;20104;-80
2023/02/05 12:52:33;;;;;;;6.90;3.47;;;;;;;;;;4950511;29;20031;-79
2023/02/05 12:54:59;;;;;;;9.07;4.03;;;;;;;;;;4946698;29;20031;-79
2023/02/05 12:57:39;;;;;;;11.25;3.92;;;;;;;;;;4946517;29;20090;-77
2023/02/05 13:00:11;;;;;;;10.20;3.25;;;;;;;;;;4945376;29;20020;-77
2023/02/05 13:02:46;;;;;;;7.40;2.90;;;;;;;;;;4953944;29;20471;-79
2023/02/05 13:05:18;;;;;;;9.07;3.45;;;;;;;;;;4939196;29;20028;-74
2023/02/05 13:07:59;;;;;;;11.40;3.70;;;;;;;;;;4946672;29;20027;-77
2023/02/05 13:10:32;;;;;;;12.50;3.75;;;;;;;;;;4946667;29;20032;-76
2023/02/05 13:13:00;;;;;;;8.65;3.78;;;;;;;;;;4937480;29;20042;-84
2023/02/05 13:15:38;;;;;;;11.93;2.85;;;;;;;;;;4930946;29;20510;-83
2023/02/05 13:18:07;;;;;;;7.55;3.80;;;;;;;;;;4929012;29;20043;-84
2023/02/05 13:28:46;;;;;;;7.88;3.08;;;;;;;;;;4929453;29;20039;-85
2023/02/05 13:31:15;;;;;;;9.52;3.58;;;;;;;;;;4930463;29;20028;-85
2023/02/05 13:33:42;;;;;;;8.15;3.42;;;;;;;;;;4926810;29;20043;-88
2023/02/05 13:36:17;;;;;;;7.50;3.95;;;;;;;;;;4930936;29;20095;-83
2023/02/05 13:38:44;;;;;;;;;;;;;;;;;;4925413;29;20852;-82
2023/02/05 13:41:27;;;;;;;10.90;3.63;;;;;;;;;;4929107;29;19950;-81
2023/02/05 13:43:59;;;;;;;11.48;4.70;;;;;;;;;;4929260;29;20549;-82
2023/02/05 13:46:54;;;;;;;11.07;3.72;;;;;;;;;;4938223;29;20024;-79
2023/02/05 13:49:44;;;;;;;13.23;4.80;;;;;;;;;;4935656;29;20098;-77
2023/02/05 13:52:17;;;;;;;15.32;5.97;;;;;;;;;;4933847;29;20063;-79
2023/02/05 13:54:43;;;;;;;7.90;3.80;;;;;;;;;;4928728;29;20067;-83
2023/02/05 13:57:25;;;;;;;9.13;5.18;;;;;;;;;;4932470;29;20028;-84
2023/02/05 13:59:51;;;;;;;16.90;8.80;;;;;;;;;;4929595;29;20042;-82
2023/02/05 14:02:33;;;;;;;9.15;6.13;;;;;;;;;;4936419;29;20022;-79
2023/02/05 14:05:00;;;;;;;15.63;7.25;;;;;;;;;;4931851;29;20019;-78
2023/02/05 14:07:30;;;;;;;9.63;4.97;;;;;;;;;;4939373;29;20115;-83
2023/02/05 14:09:59;;;;;;;17.73;8.75;;;;;;;;;;4929702;29;20051;-85
2023/02/05 14:12:34;;;;;;;7.78;3.50;;;;;;;;;;4928585;29;20027;-86
2023/02/05 14:15:16;;;;;;;9.48;4.15;;;;;;;;;;4928875;29;20035;-82
2023/02/05 14:17:42;;;;;;;10.05;3.55;;;;;;;;;;4913462;29;20044;-84
2023/02/05 14:20:27;;;;;;;16.17;5.18;;;;;;;;;;4929570;29;20095;-81
2023/02/05 14:22:59;;;;;;;8.68;3.70;;;;;;;;;;4928732;29;20024;-84
2023/02/05 14:25:38;;;;;;;9.93;3.10;;;;;;;;;;4927689;29;20032;-83
2023/02/05 14:28:16;;;;;;;13.00;4.30;;;;;;;;;;4932281;29;20039;-81
2023/02/05 14:30:45;;;;;;;14.80;3.80;;;;;;;;;;4928511;29;20107;-82
2023/02/05 14:33:31;;;;;;;7.07;3.47;;;;;;;;;;4932967;29;20027;-80
2023/02/05 14:36:16;;;;;;;10.50;3.22;;;;;;;;;;4948942;29;20027;-78
2023/02/05 14:38:56;;;;;;;8.90;3.25;;;;;;;;;;4929187;29;20051;-78
2023/02/05 14:41:24;;;;;;;12.52;3.40;;;;;;;;;;4941656;29;20074;-78
2023/02/05 14:43:53;;;;;;;11.52;3.45;;;;;;;;;;4939761;29;20023;-78
2023/02/05 14:46:19;;;;;;;11.13;3.30;;;;;;;;;;4937841;29;20067;-79
2023/02/05 14:48:46;;;;;;;11.90;3.70;;;;;;;;;;4934981;29;20078;-77
2023/02/05 14:51:31;;;;;;;10.40;6.38;;;;;;;;;;4937369;29;20074;-79
2023/02/05 14:54:00;;;;;;;8.57;4.25;;;;;;;;;;4939332;29;20035;-79
2023/02/05 14:56:32;;;;;;;8.43;3.83;;;;;;;;;;4938201;29;20035;-80
2023/02/05 14:59:03;;;;;;;11.93;3.53;;;;;;;;;;4934302;29;20020;-79
2023/02/05 15:01:33;;;;;;;7.40;3.38;;;;;;;;;;4921398;29;20094;-81
2023/02/05 15:04:03;;;;;;;8.73;3.53;;;;;;;;;;4935550;29;20389;-79
2023/02/05 15:06:30;;;;;;;9.32;3.25;;;;;;;;;;4934757;29;20520;-79
2023/02/05 15:09:02;;;;;;;8.63;4.55;;;;;;;;;;4934591;29;20442;-78
2023/02/05 15:11:34;;;;;;;15.05;3.85;;;;;;;;;;4933504;29;20032;-78
2023/02/05 15:14:36;;;;;;;8.13;3.30;;;;;;;;;;4936368;29;20522;-78
2023/02/05 15:17:05;;;;;;;10.35;3.15;;;;;;;;;;4867278;29;20076;-79
2023/02/05 15:19:38;;;;;;;11.07;3.72;;;;;;;;;;4920192;29;20106;-81
2023/02/05 15:22:05;;;;;;;17.27;4.75;;;;;;;;;;4931822;29;20519;-78
2023/02/05 15:24:33;;;;;;;10.55;3.03;;;;;;;;;;4936303;29;20393;-78
2023/02/05 15:27:01;;;;;;;10.15;4.15;;;;;;;;;;4935018;29;20024;-76
2023/02/05 15:29:34;;;;;;;9.00;3.50;;;;;;;;;;4939013;29;20357;-78
2023/02/05 15:32:02;;;;;;;6.82;3.03;;;;;;;;;;4938617;29;20048;-78
2023/02/05 15:34:46;;;;;;;10.65;3.45;;;;;;;;;;4941579;29;20439;-78
2023/02/05 15:37:33;;;;;;;9.32;3.00;;;;;;;;;;4939204;29;20032;-78
2023/02/05 15:40:03;;;;;;;9.25;3.50;;;;;;;;;;4938822;29;20028;-78
2023/02/05 15:42:34;;;;;;;10.60;3.20;;;;;;;;;;4922754;29;20544;-79